Time;durP1;ratioP1;P1;durP2;ratioP2;P2;SDS_P1;SDS_P2;PMS_P1;PMS_P2;Temp;Humidity;BMP_temperature;BMP_pressure;BME280_temperature;BME280_humidity;BME280_pressure;Samples;Min_cycle;Max_cycle;Signal;HPM_P1;HPM_P2
2021/10/01 00:01:34;;;;;;;13.60;2.55;;;;;;;13.99;76.53;99649.03;5088622;28;20071;-78
2021/10/01 00:04:01;;;;;;;13.20;2.60;;;;;;;13.99;76.38;99646.22;5088451;28;20032;-79
2021/10/01 00:06:28;;;;;;;14.35;2.85;;;;;;;14.01;76.19;99640.25;5087815;28;20131;-79
2021/10/01 00:08:56;;;;;;;17.83;4.40;;;;;;;13.99;76.20;99651.00;5089453;28;20038;-79
2021/10/01 00:11:22;;;;;;;8.52;2.42;;;;;;;13.97;75.87;99636.69;5086233;28;20119;-79
2021/10/01 00:13:49;;;;;;;14.85;3.17;;;;;;;13.97;75.94;99625.56;5086298;28;20044;-78
2021/10/01 00:16:16;;;;;;;10.35;2.33;;;;;;;13.96;75.77;99632.31;5087244;28;20050;-79
2021/10/01 00:18:43;;;;;;;11.75;2.67;;;;;;;13.94;75.62;99613.22;5089157;28;20494;-79
2021/10/01 00:21:10;;;;;;;9.60;2.83;;;;;;;13.93;75.73;99611.63;5086603;28;20395;-79
2021/10/01 00:23:37;;;;;;;5.45;2.53;;;;;;;13.91;75.47;99599.31;5085897;28;20532;-79
2021/10/01 00:26:05;;;;;;;9.98;2.20;;;;;;;13.87;75.57;99602.06;5088155;28;20052;-79
2021/10/01 00:28:32;;;;;;;11.85;2.30;;;;;;;13.83;75.42;99590.16;5085621;28;20128;-79
2021/10/01 00:30:59;;;;;;;7.25;2.05;;;;;;;13.80;75.54;99585.38;5087685;28;20040;-79
2021/10/01 00:33:27;;;;;;;8.88;1.65;;;;;;;13.80;75.36;99604.84;5089150;28;20516;-79
2021/10/01 00:35:53;;;;;;;16.45;2.60;;;;;;;13.79;75.53;99592.13;5088537;28;20044;-78
2021/10/01 00:38:20;;;;;;;11.23;3.00;;;;;;;13.80;75.39;99579.81;5086964;28;20166;-78
2021/10/01 00:40:47;;;;;;;13.27;3.17;;;;;;;13.80;75.14;99587.34;5087646;28;20093;-79
2021/10/01 00:43:14;;;;;;;16.20;3.13;;;;;;;13.79;75.19;99581.00;5088413;28;20070;-79
2021/10/01 00:45:41;;;;;;;13.05;2.38;;;;;;;13.79;74.84;99578.22;5070098;28;20048;-79
2021/10/01 00:48:08;;;;;;;13.77;2.03;;;;;;;13.76;75.12;99576.25;5088771;28;20043;-79
2021/10/01 00:50:34;;;;;;;15.50;2.50;;;;;;;13.74;75.28;99581.38;5087175;28;20050;-79
2021/10/01 00:53:02;;;;;;;9.10;2.40;;;;;;;13.75;75.13;99573.84;5086875;28;20040;-78
2021/10/01 00:55:29;;;;;;;10.98;4.18;;;;;;;13.74;75.13;99570.25;5086470;28;20040;-78
2021/10/01 00:57:56;;;;;;;14.43;3.72;;;;;;;13.72;75.38;99567.09;5086976;28;20036;-79
2021/10/01 01:00:27;;;;;;;12.68;3.40;;;;;;;13.71;75.27;99571.06;5083647;28;20039;-79
2021/10/01 01:02:58;;;;;;;11.57;2.42;;;;;;;13.68;75.29;99563.50;5088524;28;20032;-78
2021/10/01 01:05:34;;;;;;;18.23;4.68;;;;;;;13.70;75.52;99572.25;5088005;28;20066;-79
2021/10/01 01:08:08;;;;;;;15.25;2.72;;;;;;;13.69;75.40;99570.66;5086957;28;20044;-79
2021/10/01 01:10:39;;;;;;;14.27;3.72;;;;;;;13.71;75.28;99570.28;5087586;28;20048;-79
2021/10/01 01:13:22;;;;;;;19.98;3.78;;;;;;;13.70;75.37;99558.34;5086713;28;20046;-79
2021/10/01 01:15:55;;;;;;;20.98;3.92;;;;;;;13.69;75.40;99564.28;5086696;28;20057;-78
2021/10/01 01:18:37;;;;;;;19.67;3.58;;;;;;;13.67;75.52;99556.34;5085366;28;20032;-79
2021/10/01 01:21:04;;;;;;;14.38;2.47;;;;;;;13.67;75.39;99559.13;5085416;28;20048;-79
2021/10/01 01:23:50;;;;;;;16.35;2.28;;;;;;;13.66;75.18;99535.28;5086027;28;20046;-79
2021/10/01 01:26:35;;;;;;;10.10;2.10;;;;;;;13.62;75.01;99545.63;5085057;28;20595;-78
2021/10/01 01:29:09;;;;;;;13.23;2.03;;;;;;;13.63;75.13;99536.09;5084402;28;20044;-79
2021/10/01 01:31:42;;;;;;;9.15;2.03;;;;;;;13.58;75.07;99538.47;5087617;28;20480;-79
2021/10/01 01:34:13;;;;;;;12.32;2.90;;;;;;;13.58;74.85;99538.47;5085345;28;20046;-78
2021/10/01 01:36:42;;;;;;;7.45;1.95;;;;;;;13.53;75.13;99547.97;5086710;28;20047;-78
2021/10/01 01:39:10;;;;;;;11.48;2.60;;;;;;;13.47;74.93;99549.56;5088281;28;20496;-79
2021/10/01 01:41:38;;;;;;;10.88;2.92;;;;;;;13.43;75.23;99537.63;5102873;28;20067;-79
2021/10/01 01:44:09;;;;;;;9.55;2.10;;;;;;;13.40;75.21;99532.84;5086045;28;20067;-79
2021/10/01 01:46:37;;;;;;;8.00;2.47;;;;;;;13.38;75.17;99536.03;5087331;28;20502;-79
2021/10/01 01:49:04;;;;;;;9.90;1.92;;;;;;;13.37;75.33;99544.75;5085190;28;20036;-79
2021/10/01 01:51:32;;;;;;;12.80;2.05;;;;;;;13.35;74.95;99542.38;5086883;28;20040;-78
2021/10/01 01:53:59;;;;;;;11.32;1.90;;;;;;;13.33;75.17;99538.41;5086251;28;20502;-79
2021/10/01 01:56:29;;;;;;;7.75;2.25;;;;;;;13.31;75.11;99538.81;5065352;28;20477;-79
2021/10/01 01:58:59;;;;;;;10.05;2.30;;;;;;;13.30;75.22;99530.84;5085921;28;20373;-79
2021/10/01 02:01:29;;;;;;;12.75;2.50;;;;;;;13.30;75.30;99533.63;5083735;28;20476;-79
2021/10/01 02:03:58;;;;;;;9.95;2.55;;;;;;;13.27;75.32;99535.19;5085903;28;20036;-78
2021/10/01 02:06:25;;;;;;;13.95;3.38;;;;;;;13.26;75.42;99524.47;5086137;28;20364;-78
2021/10/01 02:08:53;;;;;;;16.00;4.30;;;;;;;13.22;75.53;99512.53;5086927;28;20121;-79
2021/10/01 02:11:20;;;;;;;13.48;2.20;;;;;;;13.21;75.58;99516.53;5084695;28;20094;-79
2021/10/01 02:13:49;;;;;;;11.60;2.33;;;;;;;13.20;75.50;99510.16;5086907;28;20089;-78
2021/10/01 02:16:17;;;;;;;8.75;2.08;;;;;;;13.16;75.53;99519.66;5086805;28;20051;-78
2021/10/01 02:18:47;;;;;;;8.77;2.10;;;;;;;13.16;75.64;99514.09;5084282;28;20166;-79
2021/10/01 02:21:17;;;;;;;12.73;2.25;;;;;;;13.19;75.67;99513.31;5085256;28;20510;-79
2021/10/01 02:23:44;;;;;;;12.40;3.28;;;;;;;13.21;75.67;99497.06;5084582;28;20403;-78
2021/10/01 02:26:38;;;;;;;12.98;1.85;;;;;;;13.22;75.64;99507.00;5082623;28;20048;-78
2021/10/01 02:29:35;;;;;;;9.85;2.45;;;;;;;13.23;76.24;99498.28;5073310;28;20067;-79
2021/10/01 02:32:13;;;;;;;13.27;2.72;;;;;;;13.25;76.10;99478.41;5085222;28;20051;-79
2021/10/01 02:34:44;;;;;;;15.10;5.43;;;;;;;13.27;76.24;99484.38;5084702;28;20127;-79
2021/10/01 02:37:12;;;;;;;13.98;2.97;;;;;;;13.28;75.88;99474.84;5086536;28;20277;-78
2021/10/01 02:39:42;;;;;;;12.07;2.00;;;;;;;13.28;76.05;99489.53;5085365;28;20496;-78
2021/10/01 02:42:12;;;;;;;10.95;2.38;;;;;;;13.29;76.13;99484.78;5085729;28;20071;-79
2021/10/01 02:44:40;;;;;;;9.77;2.00;;;;;;;13.30;76.00;99478.03;5085320;28;20462;-79
2021/10/01 02:47:07;;;;;;;9.68;2.15;;;;;;;13.30;76.13;99473.25;5084850;28;20036;-79
2021/10/01 02:49:36;;;;;;;9.98;1.90;;;;;;;13.30;76.03;99472.47;5085563;28;20384;-78
2021/10/01 02:52:34;;;;;;;8.68;2.20;;;;;;;13.30;76.07;99472.47;5090273;28;20048;-79
2021/10/01 02:55:14;;;;;;;10.95;1.92;;;;;;;13.28;76.42;99458.16;5088239;28;20105;-79
2021/10/01 02:58:08;;;;;;;11.00;2.30;;;;;;;13.27;76.16;99462.13;5090191;28;20127;-79
2021/10/01 03:00:35;;;;;;;9.57;2.40;;;;;;;13.28;75.92;99469.28;5088725;28;20404;-79
2021/10/01 03:03:10;;;;;;;10.23;2.42;;;;;;;13.27;76.35;99478.81;5090474;28;20048;-78
2021/10/01 03:05:40;;;;;;;8.15;2.70;;;;;;;13.25;76.53;99504.22;5091900;28;20478;-78
2021/10/01 03:08:08;;;;;;;10.07;1.88;;;;;;;13.18;77.13;99507.00;5091243;28;20048;-79
2021/10/01 03:10:36;;;;;;;7.68;1.75;;;;;;;12.96;76.88;99515.59;5088600;28;20131;-78
2021/10/01 03:13:03;;;;;;;6.35;0.90;;;;;;;12.71;76.80;99515.47;5088041;28;20105;-79
2021/10/01 03:15:31;;;;;;;7.25;1.65;;;;;;;12.50;77.28;99491.19;5089434;28;20047;-79
2021/10/01 03:17:59;;;;;;;4.60;1.33;;;;;;;12.32;77.37;99495.03;5090805;28;20452;-78
2021/10/01 03:20:26;;;;;;;15.20;3.40;;;;;;;12.25;77.64;99501.34;5084782;28;20042;-78
2021/10/01 03:22:54;;;;;;;2.92;0.90;;;;;;;12.20;77.63;99487.84;5089026;28;20048;-78
2021/10/01 03:25:21;;;;;;;4.88;1.10;;;;;;;12.16;77.66;99481.47;5090502;28;20052;-78
2021/10/01 03:27:48;;;;;;;6.50;1.90;;;;;;;12.09;77.77;99482.22;5088475;28;20040;-78
2021/10/01 03:30:15;;;;;;;4.10;1.02;;;;;;;12.05;77.72;99475.03;5087297;28;20468;-78
2021/10/01 03:32:42;;;;;;;5.57;1.90;;;;;;;12.04;77.76;99467.91;5090870;28;20044;-78
2021/10/01 03:35:10;;;;;;;7.30;0.75;;;;;;;11.98;77.75;99475.00;5090802;28;20056;-76
2021/10/01 03:37:37;;;;;;;9.00;1.60;;;;;;;11.94;77.92;99480.50;5089667;28;20111;-76
2021/10/01 03:40:10;;;;;;;9.90;2.03;;;;;;;11.95;78.36;99475.75;5087456;28;20051;-76
2021/10/01 03:42:38;;;;;;;6.65;1.48;;;;;;;11.92;78.33;99470.97;5089037;28;20503;-76
2021/10/01 03:45:08;;;;;;;6.18;1.75;;;;;;;11.90;78.19;99478.91;5090453;28;20044;-76
2021/10/01 03:47:35;;;;;;;6.07;1.65;;;;;;;11.85;78.67;99462.63;5088699;28;20044;-76
2021/10/01 03:50:02;;;;;;;8.75;2.28;;;;;;;11.84;78.59;99464.59;5087229;28;20118;-76
2021/10/01 03:52:29;;;;;;;9.57;1.83;;;;;;;11.83;78.49;99459.44;5087453;28;20040;-76
2021/10/01 03:54:56;;;;;;;7.25;2.80;;;;;;;11.83;78.64;99464.97;5088900;28;20055;-75
2021/10/01 03:57:23;;;;;;;6.28;1.75;;;;;;;11.84;78.64;99453.50;5087639;28;20047;-76
2021/10/01 03:59:49;;;;;;;8.27;1.65;;;;;;;11.85;78.91;99454.28;5086516;28;20515;-76
2021/10/01 04:02:16;;;;;;;12.07;1.77;;;;;;;11.86;78.78;99467.00;5085384;28;20127;-76
2021/10/01 04:04:43;;;;;;;9.00;1.67;;;;;;;11.87;78.81;99468.56;5088886;28;20051;-75
2021/10/01 04:07:09;;;;;;;6.15;1.55;;;;;;;11.87;78.72;99474.13;5088947;28;20085;-75
2021/10/01 04:09:36;;;;;;;6.22;1.52;;;;;;;11.83;78.27;99473.31;5088824;28;20484;-75
2021/10/01 04:12:07;;;;;;;6.40;1.13;;;;;;;11.79;78.60;99483.56;5087551;28;20048;-76
2021/10/01 04:14:35;;;;;;;7.35;1.27;;;;;;;11.77;78.35;99488.69;5085405;28;20131;-75
2021/10/01 04:17:02;;;;;;;12.10;1.30;;;;;;;11.72;78.26;99478.75;5086966;28;20093;-75
2021/10/01 04:19:29;;;;;;;8.27;1.98;;;;;;;11.70;77.96;99494.19;5081851;28;20062;-73
2021/10/01 04:22:03;;;;;;;2.42;0.93;;;;;;;11.65;77.85;99495.28;5088533;28;20044;-75
2021/10/01 04:24:30;;;;;;;8.82;1.30;;;;;;;11.59;77.80;99505.97;5087877;28;20040;-75
2021/10/01 04:26:57;;;;;;;5.78;1.05;;;;;;;11.58;77.62;99512.66;5087705;28;20055;-75
2021/10/01 04:29:23;;;;;;;4.65;1.30;;;;;;;11.58;77.60;99532.06;5088887;28;20050;-75
2021/10/01 04:31:50;;;;;;;5.15;0.98;;;;;;;11.54;77.66;99520.13;5087950;28;20435;-75
2021/10/01 04:34:17;;;;;;;2.95;1.40;;;;;;;11.52;77.68;99550.22;5089510;28;20115;-75
2021/10/01 04:36:44;;;;;;;9.85;1.25;;;;;;;11.46;77.66;99532.31;5087708;28;20511;-75
2021/10/01 04:39:13;;;;;;;8.88;1.30;;;;;;;11.47;77.66;99524.81;5087160;28;20044;-75
2021/10/01 04:41:41;;;;;;;5.07;1.13;;;;;;;11.49;77.52;99545.44;5087035;28;20074;-75
2021/10/01 04:44:09;;;;;;;3.88;0.93;;;;;;;11.45;77.52;99552.13;5088767;28;20097;-75
2021/10/01 04:46:35;;;;;;;5.03;0.80;;;;;;;11.38;77.94;99547.31;5086647;28;20035;-75
2021/10/01 04:49:03;;;;;;;9.25;2.38;;;;;;;11.39;77.83;99546.13;5084900;28;20039;-75
2021/10/01 04:51:29;;;;;;;6.90;0.60;;;;;;;11.38;78.03;99561.16;5086524;28;20032;-75
2021/10/01 04:53:56;;;;;;;3.30;0.80;;;;;;;11.32;77.96;99559.91;5086584;28;20048;-75
2021/10/01 04:56:23;;;;;;;3.47;0.70;;;;;;;11.26;77.85;99577.22;5087526;28;20070;-75
2021/10/01 04:58:50;;;;;;;2.80;1.20;;;;;;;11.27;77.72;99579.63;5084609;28;20048;-75
2021/10/01 05:01:17;;;;;;;4.85;1.60;;;;;;;11.26;77.57;99594.66;5087537;28;20036;-75
2021/10/01 05:03:44;;;;;;;4.13;0.57;;;;;;;11.21;77.52;99595.00;5087547;28;20675;-75
2021/10/01 05:06:11;;;;;;;2.85;0.55;;;;;;;11.20;77.34;99598.16;5088167;28;20051;-75
2021/10/01 05:08:37;;;;;;;4.95;1.25;;;;;;;11.21;77.25;99599.72;5087068;28;20127;-75
2021/10/01 05:11:04;;;;;;;3.65;0.60;;;;;;;11.21;76.99;99619.94;5101323;28;20056;-75
2021/10/01 05:13:31;;;;;;;1.25;0.40;;;;;;;11.15;77.11;99620.63;5087896;28;20046;-75
2021/10/01 05:15:58;;;;;;;4.97;0.43;;;;;;;11.08;77.19;99632.41;5086342;28;20488;-75
2021/10/01 05:18:25;;;;;;;2.33;0.38;;;;;;;11.09;77.02;99630.47;5087290;28;21949;-75
2021/10/01 05:20:51;;;;;;;2.65;0.63;;;;;;;11.09;76.92;99645.09;5086926;28;20110;-75
2021/10/01 05:23:18;;;;;;;4.90;0.65;;;;;;;11.01;77.10;99665.56;5088638;28;20036;-75
2021/10/01 05:25:45;;;;;;;3.75;0.82;;;;;;;11.01;77.11;99682.19;5084547;28;20044;-75
2021/10/01 05:28:12;;;;;;;1.77;0.50;;;;;;;10.95;76.57;99680.91;5085734;28;20040;-75
2021/10/01 05:30:40;;;;;;;3.60;0.70;;;;;;;10.91;76.72;99683.59;5086051;28;20048;-76
2021/10/01 05:33:07;;;;;;;2.40;0.30;;;;;;;10.94;76.41;99687.59;5084200;28;20071;-76
2021/10/01 05:35:35;;;;;;;5.28;0.30;;;;;;;10.88;76.28;99695.44;5086296;28;20126;-75
2021/10/01 05:38:03;;;;;;;6.30;0.40;;;;;;;10.80;75.96;99698.47;5086796;28;20493;-75
2021/10/01 05:40:30;;;;;;;3.03;0.30;;;;;;;10.68;76.18;99706.97;5086576;28;20143;-75
2021/10/01 05:43:01;;;;;;;9.45;2.60;;;;;;;10.60;76.41;99710.78;5084978;28;20035;-76
2021/10/01 05:45:27;;;;;;;1.63;0.30;;;;;;;10.46;76.01;99703.06;5085770;28;20420;-75
2021/10/01 05:47:54;;;;;;;2.85;0.30;;;;;;;10.37;76.10;99708.06;5086597;28;20047;-76
2021/10/01 05:50:22;;;;;;;4.40;0.65;;;;;;;10.32;76.08;99711.94;5085825;28;20036;-75
2021/10/01 05:55:16;;;;;;;1.58;0.28;;;;;;;10.25;75.98;99722.84;5086621;28;20135;-75
2021/10/01 05:57:44;;;;;;;6.93;0.65;;;;;;;10.16;75.83;99727.84;5084830;28;20111;-76
2021/10/01 06:00:12;;;;;;;5.25;1.00;;;;;;;10.12;76.05;99728.88;5085807;28;20042;-75
2021/10/01 06:02:40;;;;;;;3.13;0.70;;;;;;;10.11;75.96;99732.84;5082998;28;20105;-75
2021/10/01 06:05:10;;;;;;;3.50;0.70;;;;;;;10.06;76.03;99736.69;5081686;28;20039;-74
2021/10/01 06:07:38;;;;;;;9.30;0.70;;;;;;;10.01;76.19;99725.91;5087814;28;20048;-75
2021/10/01 06:10:06;;;;;;;5.32;0.70;;;;;;;10.05;75.78;99735.09;5087475;28;20123;-75
2021/10/01 06:12:33;;;;;;;2.63;0.52;;;;;;;10.03;75.84;99744.94;5086333;28;20066;-75
2021/10/01 06:15:00;;;;;;;5.45;0.68;;;;;;;9.99;75.93;99741.28;5084997;28;20040;-75
2021/10/01 06:17:27;;;;;;;6.05;0.70;;;;;;;9.96;75.82;99742.00;5085754;28;20036;-76
2021/10/01 06:19:54;;;;;;;4.60;0.70;;;;;;;9.84;76.32;99744.94;5085398;28;20442;-75
2021/10/01 06:22:21;;;;;;;5.20;0.60;;;;;;;9.80;76.50;99745.66;5084584;28;20062;-75
2021/10/01 06:24:50;;;;;;;4.43;0.50;;;;;;;9.79;76.58;99748.78;5085485;28;20105;-75
2021/10/01 06:27:18;;;;;;;5.75;1.00;;;;;;;9.79;76.27;99760.63;5091374;28;20055;-76
2021/10/01 06:29:46;;;;;;;6.70;0.85;;;;;;;9.76;76.65;99752.28;5089539;28;20130;-76
2021/10/01 06:32:13;;;;;;;3.10;0.82;;;;;;;9.71;76.48;99763.63;5089825;28;20056;-76
2021/10/01 06:34:40;;;;;;;2.92;0.70;;;;;;;9.67;76.87;99759.97;5091122;28;20038;-75
2021/10/01 06:37:07;;;;;;;3.90;0.93;;;;;;;9.64;76.59;99774.53;5090575;28;20762;-75
2021/10/01 06:39:34;;;;;;;2.38;0.70;;;;;;;9.66;76.54;99767.47;5090465;28;20056;-76
2021/10/01 06:42:02;;;;;;;6.80;0.88;;;;;;;9.63;76.37;99767.41;5090920;28;20075;-75
2021/10/01 06:44:31;;;;;;;6.07;0.70;;;;;;;9.64;76.29;99778.09;5089957;28;20028;-75
2021/10/01 06:47:08;;;;;;;3.83;1.42;;;;;;;9.62;76.16;99776.84;5088787;28;20040;-76
2021/10/01 06:49:57;;;;;;;4.93;0.77;;;;;;;9.60;76.18;99780.00;5090828;28;20042;-75
2021/10/01 06:52:42;;;;;;;7.30;0.73;;;;;;;9.64;75.91;99786.38;5088733;28;20079;-76
2021/10/01 08:20:23;;;;;;;8.00;1.13;;;;;;;10.06;73.69;99874.94;5084678;28;20051;-77
2021/10/01 08:22:51;;;;;;;2.75;0.82;;;;;;;10.08;73.38;99877.38;5087744;28;20054;-77
2021/10/01 08:25:18;;;;;;;3.25;0.73;;;;;;;10.12;73.52;99878.22;5083504;28;20122;-77
2021/10/01 08:27:44;;;;;;;7.18;1.33;;;;;;;10.15;73.33;99888.59;5086664;28;20044;-77
2021/10/01 08:30:12;;;;;;;9.20;1.00;;;;;;;10.20;73.33;99893.84;5086574;28;20054;-77
2021/10/01 08:32:39;;;;;;;11.88;1.55;;;;;;;10.19;73.22;99876.44;5088157;28;20047;-77
2021/10/01 08:35:06;;;;;;;6.82;1.35;;;;;;;10.23;73.34;99880.09;5087185;28;20036;-77
2021/10/01 08:37:33;;;;;;;7.18;1.15;;;;;;;10.26;73.35;99893.22;5057008;28;20475;-77
2021/10/01 08:40:00;;;;;;;9.15;1.65;;;;;;;10.27;73.12;99889.25;5087353;28;20514;-77
2021/10/01 08:42:27;;;;;;;4.20;0.77;;;;;;;10.31;73.22;99894.88;5086157;28;20126;-76
2021/10/01 08:44:55;;;;;;;5.78;0.75;;;;;;;10.33;73.20;99887.81;5083184;28;20047;-77
2021/10/01 08:47:23;;;;;;;4.70;1.10;;;;;;;10.36;72.65;99897.34;5085544;28;20093;-77
2021/10/01 08:49:51;;;;;;;12.27;2.42;;;;;;;10.36;72.68;99889.84;5086038;28;20475;-77
2021/10/01 08:52:18;;;;;;;6.80;1.33;;;;;;;10.38;72.84;99893.03;5086470;28;20062;-77
2021/10/01 08:54:46;;;;;;;7.97;1.50;;;;;;;10.42;72.62;99892.31;5086949;28;20039;-77
2021/10/01 08:57:13;;;;;;;8.93;2.00;;;;;;;10.50;72.66;99892.09;5086378;28;20761;-77
2021/10/01 08:59:40;;;;;;;3.53;1.58;;;;;;;10.58;72.56;99904.13;5069280;28;20048;-77
2021/10/01 09:02:09;;;;;;;5.53;0.93;;;;;;;10.63;72.29;99906.59;5086787;28;20125;-77
2021/10/01 09:04:36;;;;;;;12.60;1.33;;;;;;;10.67;72.06;99904.69;5086509;28;20048;-77
2021/10/01 09:07:03;;;;;;;4.43;1.65;;;;;;;10.72;72.11;99905.19;5082585;28;20047;-77
2021/10/01 09:09:38;;;;;;;6.47;1.20;;;;;;;10.79;71.74;99902.56;5085811;28;20046;-78
2021/10/01 09:12:06;;;;;;;8.00;1.42;;;;;;;10.86;71.59;99912.94;5085520;28;20039;-77
2021/10/01 09:14:53;;;;;;;4.75;1.00;;;;;;;10.89;70.66;99913.03;5086394;28;20043;-77
2021/10/01 09:17:22;;;;;;;8.23;1.60;;;;;;;10.95;71.48;99905.22;5082021;28;20044;-76
2021/10/01 09:19:49;;;;;;;14.68;1.67;;;;;;;11.03;71.37;99915.25;5086601;28;20519;-76
2021/10/01 09:22:44;;;;;;;9.15;0.95;;;;;;;11.06;70.36;99914.53;5081997;28;20046;-76
2021/10/01 09:25:18;;;;;;;12.57;2.95;;;;;;;11.10;70.25;99914.56;5085051;28;20055;-76
2021/10/01 09:27:48;;;;;;;7.45;1.45;;;;;;;11.17;70.66;99918.31;5087463;28;20054;-76
2021/10/01 09:30:18;;;;;;;6.82;1.30;;;;;;;11.24;70.75;99929.50;5086394;28;20055;-76
2021/10/01 09:33:12;;;;;;;11.93;2.05;;;;;;;11.33;69.55;99951.41;5083808;28;20040;-76
2021/10/01 09:35:42;;;;;;;5.63;1.80;;;;;;;11.38;70.41;99929.75;5085711;28;20032;-77
2021/10/01 09:38:14;;;;;;;7.07;1.20;;;;;;;11.43;70.13;99912.81;5085471;28;20067;-76
2021/10/01 09:40:42;;;;;;;5.50;1.98;;;;;;;11.51;70.12;99917.28;5084142;28;20047;-77
2021/10/01 09:43:30;;;;;;;9.68;1.98;;;;;;;11.59;68.36;99924.56;5085714;28;20039;-76
2021/10/01 09:46:08;;;;;;;3.30;1.10;;;;;;;11.69;69.15;99927.88;5079574;28;20055;-76
2021/10/01 09:48:37;;;;;;;8.10;0.90;;;;;;;11.71;69.19;99925.53;5081192;28;20047;-76
2021/10/01 09:51:17;;;;;;;7.13;1.15;;;;;;;11.77;68.35;99935.94;5082857;28;20566;-75
2021/10/01 09:53:46;;;;;;;8.95;1.13;;;;;;;11.85;68.32;99925.75;5084576;28;20135;-76
2021/10/01 09:56:29;;;;;;;8.73;1.00;;;;;;;11.89;67.61;99927.41;5085705;28;20051;-76
2021/10/01 09:59:10;;;;;;;4.22;0.90;;;;;;;11.99;66.87;99937.06;5081572;28;20036;-76
2021/10/01 10:02:12;;;;;;;6.32;1.10;;;;;;;12.00;65.34;99917.25;5082232;28;20573;-77
2021/10/01 10:04:50;;;;;;;6.35;1.73;;;;;;;12.04;66.54;99929.22;5082937;28;20126;-76
2021/10/01 10:07:27;;;;;;;4.38;0.82;;;;;;;12.11;65.00;99934.06;5085924;28;20139;-77
2021/10/01 10:09:57;;;;;;;6.90;0.90;;;;;;;12.15;66.57;99907.19;5085625;28;20048;-77
2021/10/01 10:12:26;;;;;;;3.28;0.85;;;;;;;12.32;65.59;99928.81;5083223;28;20384;-77
2021/10/01 10:14:54;;;;;;;7.88;1.35;;;;;;;12.51;66.81;99945.31;5085630;28;20127;-77
2021/10/01 10:17:27;;;;;;;10.82;1.40;;;;;;;12.78;65.28;99937.72;5084185;28;20094;-76
2021/10/01 10:19:58;;;;;;;6.68;1.00;;;;;;;13.19;64.31;99930.22;5079154;28;20043;-77
2021/10/01 10:22:27;;;;;;;10.13;2.97;;;;;;;13.62;64.82;99935.00;5069044;28;20474;-77
2021/10/01 10:24:55;;;;;;;4.85;0.80;;;;;;;14.15;63.10;99942.91;5086050;28;20487;-77
2021/10/01 10:27:23;;;;;;;11.80;1.35;;;;;;;14.71;60.73;99946.00;5098343;28;20040;-78
2021/10/01 10:29:52;;;;;;;4.88;0.90;;;;;;;15.06;59.06;99951.69;5084779;28;20052;-77
2021/10/01 10:32:22;;;;;;;4.65;1.20;;;;;;;15.47;58.11;99945.81;5083517;28;20038;-77
2021/10/01 10:35:11;;;;;;;4.10;1.10;;;;;;;15.64;56.44;99939.44;5084951;28;20133;-77
2021/10/01 10:37:44;;;;;;;1.48;0.70;;;;;;;15.61;55.16;99931.88;5093928;28;20142;-77
2021/10/01 10:40:16;;;;;;;6.97;1.30;;;;;;;15.80;54.04;99939.84;5086498;28;20472;-77
2021/10/01 10:43:02;;;;;;;5.78;2.33;;;;;;;15.92;53.13;99928.25;5085356;28;20054;-77
2021/10/01 10:45:36;;;;;;;6.82;0.90;;;;;;;16.08;52.58;99945.38;5080853;28;20079;-77
2021/10/01 10:48:08;;;;;;;7.95;1.08;;;;;;;16.15;54.31;99964.91;5082938;28;20071;-77
2021/10/01 10:50:42;;;;;;;8.60;1.70;;;;;;;15.92;52.34;99953.38;5081957;28;20036;-77
2021/10/01 10:53:21;;;;;;;5.45;1.38;;;;;;;15.82;53.63;99951.41;5086410;28;20101;-77
2021/10/01 10:55:49;;;;;;;5.93;1.30;;;;;;;15.66;53.80;99943.44;5083568;28;20040;-77
2021/10/01 10:58:25;;;;;;;7.68;1.00;;;;;;;15.37;52.42;99952.94;5083902;28;20048;-77
2021/10/01 11:00:56;;;;;;;4.88;0.75;;;;;;;15.13;54.43;99951.72;5096667;28;20044;-77
2021/10/01 11:03:27;;;;;;;;;;;;;;;14.80;54.77;99954.78;5084294;28;20050;-77
2021/10/01 11:06:18;;;;;;;2.78;0.98;;;;;;;14.45;55.06;99957.44;5057382;28;19928;-77
2021/10/01 11:08:51;;;;;;;5.43;0.93;;;;;;;14.34;55.70;99942.66;5083127;28;20048;-77
2021/10/01 11:11:33;;;;;;;10.95;1.20;;;;;;;14.31;55.99;99960.09;5083444;28;20471;-77
2021/10/01 11:14:15;;;;;;;6.75;1.00;;;;;;;14.00;55.78;99967.06;5086695;28;20075;-77
2021/10/01 11:16:44;;;;;;;7.43;1.15;;;;;;;13.84;56.74;99964.59;5086401;28;20047;-77
2021/10/01 11:19:11;;;;;;;7.35;1.17;;;;;;;13.85;57.19;99971.72;5086857;28;20048;-77
2021/10/01 11:21:43;;;;;;;6.88;1.60;;;;;;;14.02;57.44;99973.84;5088511;28;20118;-77
2021/10/01 11:24:20;;;;;;;8.52;1.83;;;;;;;14.14;56.94;99983.09;5086756;28;20093;-77
2021/10/01 11:26:54;;;;;;;10.63;2.17;;;;;;;14.22;57.27;99973.56;5087298;28;20064;-77
2021/10/01 11:29:23;;;;;;;6.50;1.33;;;;;;;14.40;57.61;100005.94;5086377;28;20040;-77
2021/10/01 11:31:54;;;;;;;5.55;1.45;;;;;;;14.33;56.41;99985.59;5088411;28;20058;-77
2021/10/01 11:34:40;;;;;;;4.53;1.08;;;;;;;14.07;55.28;99977.44;5087515;28;20032;-77
2021/10/01 11:37:41;;;;;;;7.63;1.50;;;;;;;13.99;56.95;99977.41;5084516;28;20089;-77
2021/10/01 11:40:07;;;;;;;7.85;1.23;;;;;;;14.02;57.70;99987.78;5087156;28;20055;-77
2021/10/01 11:42:38;;;;;;;5.25;2.03;;;;;;;14.20;57.60;99992.66;5084698;28;20056;-77
2021/10/01 11:45:16;;;;;;;4.65;1.02;;;;;;;14.33;55.61;100003.13;5084572;28;20051;-77
2021/10/01 11:48:00;;;;;;;6.32;0.85;;;;;;;14.33;56.28;99980.03;5085225;28;20140;-77
2021/10/01 11:50:37;;;;;;;4.97;1.15;;;;;;;14.31;55.89;99999.09;5086568;28;20101;-77
2021/10/01 11:53:14;;;;;;;4.53;1.42;;;;;;;14.21;56.20;99991.47;5084923;28;20048;-77
2021/10/01 11:55:51;;;;;;;5.75;0.82;;;;;;;14.14;56.43;99994.22;5087601;28;20090;-77
2021/10/01 11:58:19;;;;;;;5.22;0.80;;;;;;;14.11;56.43;100006.13;5079453;28;20507;-77
2021/10/01 12:00:46;;;;;;;5.55;1.13;;;;;;;14.00;55.91;100008.81;5086260;28;20048;-78
2021/10/01 12:03:15;;;;;;;4.72;1.67;;;;;;;13.99;56.09;100008.03;5087325;28;20070;-77
2021/10/01 12:05:51;;;;;;;7.45;1.23;;;;;;;14.00;55.28;100012.38;5087136;28;20061;-77
2021/10/01 12:08:22;;;;;;;6.15;1.00;;;;;;;14.03;55.52;100005.28;5088602;28;20050;-78
2021/10/01 12:10:55;;;;;;;2.90;0.80;;;;;;;14.06;55.46;100006.47;5070167;28;20541;-77
2021/10/01 12:13:33;;;;;;;7.33;1.03;;;;;;;14.10;55.50;100021.22;5086206;28;20072;-77
2021/10/01 12:16:04;;;;;;;3.70;0.70;;;;;;;14.11;55.14;100011.69;5088536;28;20863;-77
2021/10/01 12:18:34;;;;;;;5.07;1.10;;;;;;;14.09;55.15;100011.25;5069334;28;20070;-77
2021/10/01 12:21:04;;;;;;;4.15;0.90;;;;;;;14.00;54.73;100009.59;5086237;28;20040;-77
2021/10/01 12:23:37;;;;;;;4.18;0.85;;;;;;;13.95;54.69;100015.53;5087047;28;20036;-78
2021/10/01 12:26:21;;;;;;;4.50;1.38;;;;;;;14.08;53.75;100004.91;5088175;28;20101;-77
2021/10/01 12:29:13;;;;;;;3.10;0.85;;;;;;;14.29;53.28;100007.84;5084905;28;20055;-77
2021/10/01 12:32:02;;;;;;;2.28;0.60;;;;;;;14.49;52.29;100016.72;5085833;28;20040;-77
2021/10/01 12:34:48;;;;;;;5.30;1.08;;;;;;;14.56;53.29;100005.66;5087367;28;20048;-77
2021/10/01 12:37:21;;;;;;;3.53;0.90;;;;;;;14.61;52.91;100008.06;5087272;28;20075;-77
2021/10/01 12:39:58;;;;;;;6.10;1.00;;;;;;;14.67;52.09;100006.47;5102222;28;20058;-77
2021/10/01 12:42:27;;;;;;;4.78;1.27;;;;;;;14.74;51.65;100000.16;5089020;28;20115;-78
2021/10/01 12:45:03;;;;;;;6.30;0.70;;;;;;;14.88;51.92;100011.38;5088278;28;20047;-77
2021/10/01 12:47:35;;;;;;;7.32;0.98;;;;;;;15.01;51.46;100013.41;5086207;28;20044;-77
2021/10/01 12:50:13;;;;;;;4.65;0.82;;;;;;;15.24;50.08;100007.50;5087207;28;20052;-77
2021/10/01 12:53:04;;;;;;;4.35;0.52;;;;;;;15.24;48.58;100008.31;5086221;28;20040;-77
2021/10/01 12:55:33;;;;;;;6.82;0.93;;;;;;;15.15;49.88;100004.28;5086557;28;20036;-79
2021/10/01 12:58:01;;;;;;;5.00;0.95;;;;;;;15.13;50.17;100006.69;5081963;28;20048;-78
2021/10/01 13:00:37;;;;;;;5.38;1.38;;;;;;;15.11;49.38;100001.50;5086255;28;20098;-78
2021/10/01 13:03:06;;;;;;;5.25;1.08;;;;;;;15.22;50.17;99999.53;5088349;28;20048;-77
2021/10/01 13:05:41;;;;;;;4.75;1.33;;;;;;;15.23;50.41;100011.47;5086207;28;20048;-77
2021/10/01 13:08:14;;;;;;;5.00;1.52;;;;;;;15.09;51.42;100008.66;5086858;28;20127;-77
2021/10/01 13:10:52;;;;;;;5.15;1.15;;;;;;;14.91;52.05;100016.94;5085816;28;20046;-77
2021/10/01 13:13:21;;;;;;;6.95;1.27;;;;;;;14.92;52.57;100015.75;5085039;28;20140;-77
2021/10/01 13:15:55;;;;;;;5.05;0.90;;;;;;;15.04;52.20;100026.56;5084849;28;20094;-77
2021/10/01 13:18:33;;;;;;;4.72;0.90;;;;;;;15.38;50.48;100023.50;5084968;28;20040;-77